Time;durP1;ratioP1;P1;durP2;ratioP2;P2;SDS_P1;SDS_P2;PMS_P1;PMS_P2;Temp;Humidity;BMP_temperature;BMP_pressure;BME280_temperature;BME280_humidity;BME280_pressure;Samples;Min_cycle;Max_cycle;Signal;HPM_P1;HPM_P2
2022/09/23 00:01:10;;;;;;;3.55;3.25;;;;;;;10.40;100.00;100103.23;1663133;85;21243;-75
2022/09/23 00:03:46;;;;;;;5.22;3.35;;;;;;;10.39;100.00;100102.39;1681584;84;21553;-76
2022/09/23 00:06:20;;;;;;;3.23;3.03;;;;;;;10.42;100.00;100107.34;1707818;83;21445;-77
2022/09/23 00:08:48;;;;;;;3.50;3.13;;;;;;;10.44;100.00;100101.83;1698686;83;21488;-75
2022/09/23 00:11:25;;;;;;;3.20;3.07;;;;;;;10.42;100.00;100094.02;1703233;83;21074;-75
2022/09/23 00:13:57;;;;;;;2.77;2.47;;;;;;;10.43;100.00;100095.66;1652139;86;20970;-75
2022/09/23 00:16:32;;;;;;;3.03;2.83;;;;;;;10.44;100.00;100095.98;1681378;84;21202;-77
2022/09/23 00:19:03;;;;;;;3.23;2.97;;;;;;;10.43;100.00;100090.84;1650795;85;21539;-77
2022/09/23 00:21:30;;;;;;;3.23;3.03;;;;;;;10.42;100.00;100082.55;1647155;85;21477;-74
2022/09/23 00:23:56;;;;;;;5.05;3.50;;;;;;;10.42;100.00;100089.21;1679454;84;21536;-75
2022/09/23 00:26:22;;;;;;;3.60;3.40;;;;;;;10.39;100.00;100080.26;1676849;84;20984;-74
2022/09/23 00:28:50;;;;;;;3.90;3.60;;;;;;;10.41;100.00;100082.22;1677260;84;21504;-75
2022/09/23 00:31:21;;;;;;;4.37;3.90;;;;;;;10.39;100.00;100080.26;1676651;84;21518;-75
2022/09/23 00:33:56;;;;;;;3.77;3.47;;;;;;;10.38;100.00;100087.92;1676446;82;21068;-75
2022/09/23 00:36:24;;;;;;;4.33;4.03;;;;;;;10.38;100.00;100081.27;1678016;84;20977;-75
2022/09/23 00:38:50;;;;;;;3.93;3.63;;;;;;;10.39;100.00;100080.26;1675344;84;21529;-75
2022/09/23 00:41:16;;;;;;;;;;;;;;;10.39;100.00;100082.41;1688114;84;20993;-76
2022/09/23 00:43:48;;;;;;;4.27;3.97;;;;;;;10.40;100.00;100082.73;1687379;84;20099;-76
2022/09/23 00:46:36;;;;;;;4.30;3.97;;;;;;;10.35;100.00;100084.34;1684626;84;21044;-75
2022/09/23 00:49:13;;;;;;;3.40;3.20;;;;;;;10.33;100.00;100084.00;1681730;83;21608;-74
2022/09/23 00:51:44;;;;;;;5.58;3.95;;;;;;;10.31;100.00;100075.39;1666305;86;21005;-73
2022/09/23 00:54:10;;;;;;;4.30;3.90;;;;;;;10.31;100.00;100073.23;1650798;85;21130;-74
2022/09/23 00:56:38;;;;;;;;;;;;;;;10.31;100.00;100078.05;1707823;83;20970;-75
2022/09/23 00:59:08;;;;;;;3.50;3.27;;;;;;;10.32;100.00;100069.05;1723388;82;20142;-75
2022/09/23 01:01:36;;;;;;;4.23;3.83;;;;;;;10.30;100.00;100073.75;1694796;82;21032;-74
2022/09/23 01:04:03;;;;;;;4.40;3.83;;;;;;;10.31;100.00;100067.91;1727301;82;21120;-74
2022/09/23 01:06:29;;;;;;;3.70;3.50;;;;;;;10.33;100.00;100065.88;1725264;81;21553;-81
2022/09/23 01:08:57;;;;;;;4.30;4.00;;;;;;;10.35;100.00;100064.35;1712470;83;21069;-74
2022/09/23 01:11:42;;;;;;;4.33;3.93;;;;;;;10.36;100.00;100063.32;1694444;83;21049;-75
2022/09/23 01:14:23;;;;;;;4.03;3.80;;;;;;;10.38;100.00;100069.27;1687839;83;21077;-78
2022/09/23 01:17:10;;;;;;;3.93;3.67;;;;;;;10.36;100.00;100065.50;1709589;83;21012;-76
2022/09/23 01:19:58;;;;;;;4.77;4.10;;;;;;;10.35;100.00;100073.67;1695638;84;21002;-77
2022/09/23 01:23:02;;;;;;;3.85;3.52;;;;;;;10.33;100.00;100073.86;1715842;82;21531;-73
2022/09/23 01:26:12;;;;;;;4.43;4.13;;;;;;;10.30;100.00;100071.55;1712447;82;21092;-75
2022/09/23 01:29:04;;;;;;;4.50;4.20;;;;;;;10.23;100.00;100075.50;1698883;83;21020;-74
2022/09/23 01:31:57;;;;;;;6.50;5.17;;;;;;;10.23;100.00;100073.36;1685513;83;21108;-75
2022/09/23 01:34:50;;;;;;;4.20;3.90;;;;;;;10.23;100.00;100068.84;1634914;85;21004;-74
2022/09/23 01:37:34;;;;;;;4.00;3.80;;;;;;;10.22;100.00;100067.18;1635942;87;21613;-75
2022/09/23 01:40:32;;;;;;;5.60;4.20;;;;;;;10.23;100.00;100067.52;1678614;84;21045;-75
2022/09/23 01:43:09;;;;;;;4.50;4.10;;;;;;;10.24;100.00;100060.34;1678098;84;21063;-78
2022/09/23 01:45:47;;;;;;;6.60;4.83;;;;;;;10.25;100.00;100066.81;1665919;84;21054;-75
2022/09/23 01:48:37;;;;;;;5.37;4.87;;;;;;;10.26;100.00;100064.45;1700865;82;21546;-76
2022/09/23 01:51:14;;;;;;;12.57;5.27;;;;;;;10.26;100.00;100063.63;1657215;85;21123;-73
2022/09/23 01:54:09;;;;;;;5.70;5.20;;;;;;;10.23;100.00;100069.36;1694187;82;21029;-75
2022/09/23 01:56:43;;;;;;;5.20;4.77;;;;;;;10.24;100.00;100061.67;1700843;82;21018;-76
2022/09/23 01:59:43;;;;;;;5.63;4.93;;;;;;;10.27;100.00;100063.44;1698392;82;21053;-76
2022/09/23 02:02:24;;;;;;;7.90;6.23;;;;;;;10.30;100.00;100053.77;1713528;82;20958;-75
2022/09/23 02:05:08;;;;;;;5.80;5.23;;;;;;;10.32;100.00;100058.39;1681710;82;21025;-74
2022/09/23 02:07:52;;;;;;;5.17;4.67;;;;;;;10.32;100.00;100058.39;1663332;85;21077;-74
2022/09/23 02:10:23;;;;;;;5.53;5.13;;;;;;;10.32;100.00;100059.73;1681181;84;21099;-74
2022/09/23 02:12:56;;;;;;;5.77;5.27;;;;;;;10.32;100.00;100055.73;1688411;82;21052;-75
2022/09/23 02:15:28;;;;;;;5.03;4.70;;;;;;;10.32;100.00;100057.55;1717891;82;21000;-74
2022/09/23 02:18:06;;;;;;;6.87;5.08;;;;;;;10.32;100.00;100050.89;1724514;81;20989;-75
2022/09/23 02:20:35;;;;;;;7.57;5.97;;;;;;;10.29;100.00;100050.75;1666716;84;21060;-77
2022/09/23 02:23:14;;;;;;;6.20;5.03;;;;;;;10.29;100.00;100058.73;1685857;82;21020;-75
2022/09/23 02:26:07;;;;;;;4.95;4.65;;;;;;;10.30;100.00;100054.23;1697683;83;21029;-77
2022/09/23 02:29:01;;;;;;;5.87;4.63;;;;;;;10.30;100.00;100052.90;1729623;80;21524;-76
2022/09/23 02:31:54;;;;;;;5.60;4.43;;;;;;;10.30;100.00;100054.23;1694914;83;21038;-75
2022/09/23 02:35:06;;;;;;;5.47;4.97;;;;;;;10.27;100.00;100053.30;1637957;86;21085;-75
2022/09/23 02:37:47;;;;;;;4.90;4.43;;;;;;;10.25;100.00;100048.68;1698041;82;20990;-76
2022/09/23 02:40:37;;;;;;;4.77;4.37;;;;;;;10.20;100.00;100039.92;1676852;84;20994;-75
2022/09/23 02:43:26;;;;;;;4.47;4.20;;;;;;;10.19;100.00;100040.95;1703888;83;21021;-75
2022/09/23 02:45:53;;;;;;;4.70;4.33;;;;;;;10.20;100.00;100050.57;1675465;83;21569;-75
2022/09/23 02:48:27;;;;;;;3.20;2.97;;;;;;;10.22;100.00;100042.39;1704449;83;20991;-74
2022/09/23 02:50:54;;;;;;;8.05;7.25;;;;;;;10.22;100.00;100044.54;1704185;83;21561;-75
2022/09/23 02:53:24;;;;;;;8.93;8.03;;;;;;;10.25;100.00;100042.02;1687566;83;20976;-74
2022/09/23 02:55:50;;;;;;;4.20;3.90;;;;;;;10.26;100.00;100047.13;1670393;84;21486;-75
2022/09/23 02:58:17;;;;;;;4.58;4.28;;;;;;;10.27;100.00;100040.80;1635125;86;21521;-75
2022/09/23 03:01:03;;;;;;;;;;;;;;;10.27;100.00;100043.46;1647425;86;21008;-74
2022/09/23 03:04:05;;;;;;;3.55;3.35;;;;;;;10.25;100.00;100047.34;1697039;83;20103;-74
2022/09/23 03:07:05;;;;;;;3.67;3.40;;;;;;;10.18;100.00;100045.95;1705665;83;21068;-76
2022/09/23 03:09:42;;;;;;;4.15;3.92;;;;;;;10.18;100.00;100043.80;1639635;86;21774;-76
2022/09/23 03:12:51;;;;;;;4.30;4.07;;;;;;;10.17;100.00;100045.65;1675104;84;21619;-75
2022/09/23 03:15:34;;;;;;;3.97;3.67;;;;;;;10.18;100.00;100051.28;1704512;83;21010;-74
2022/09/23 03:18:06;;;;;;;4.43;4.03;;;;;;;10.17;100.00;100046.14;1697947;83;21022;-74
2022/09/23 03:20:43;;;;;;;3.90;3.70;;;;;;;10.12;100.00;100044.06;1642480;84;21097;-75
2022/09/23 03:23:13;;;;;;;4.03;3.83;;;;;;;10.09;100.00;100044.44;1646956;86;21026;-76
2022/09/23 03:25:44;;;;;;;4.17;3.77;;;;;;;10.09;100.00;100051.91;1647762;85;21022;-75
2022/09/23 03:28:11;;;;;;;3.73;3.47;;;;;;;10.12;100.00;100052.87;1648232;85;21009;-75
2022/09/23 03:30:39;;;;;;;4.30;3.73;;;;;;;10.16;100.00;100048.50;1648796;86;21527;-76
2022/09/23 03:33:10;;;;;;;4.57;4.27;;;;;;;10.15;100.00;100052.98;1651623;84;21086;-75
2022/09/23 03:38:31;;;;;;;5.27;3.90;;;;;;;10.19;100.00;100060.93;1671900;84;21063;-74
2022/09/23 03:41:01;;;;;;;5.67;3.50;;;;;;;10.17;100.00;100057.63;1715056;81;21044;-76
2022/09/23 03:43:29;;;;;;;3.60;3.20;;;;;;;10.20;100.00;100056.42;1741899;81;21059;-75
2022/09/23 03:45:57;;;;;;;4.70;4.33;;;;;;;10.22;100.00;100057.86;1709283;81;21053;-76
2022/09/23 03:48:24;;;;;;;4.47;4.13;;;;;;;10.25;100.00;100057.48;1677351;83;21160;-79
2022/09/23 03:50:50;;;;;;;4.13;3.83;;;;;;;10.28;100.00;100050.94;1696973;83;21525;-77
2022/09/23 03:53:19;;;;;;;4.35;4.05;;;;;;;10.31;100.00;100050.08;1717484;80;20991;-80
2022/09/23 03:55:45;;;;;;;4.83;4.43;;;;;;;10.31;100.00;100055.41;1731493;82;21112;-75
2022/09/23 03:58:13;;;;;;;3.93;3.57;;;;;;;10.32;100.00;100047.74;1707570;83;21521;-83
2022/09/23 04:00:41;;;;;;;4.03;3.73;;;;;;;10.33;100.00;100052.03;1675355;84;20997;-74
2022/09/23 04:03:07;;;;;;;4.63;4.33;;;;;;;10.33;100.00;100056.55;1699430;83;21045;-75
2022/09/23 04:05:35;;;;;;;5.17;4.08;;;;;;;10.35;100.00;100047.85;1676325;84;21457;-74
2022/09/23 04:08:02;;;;;;;4.60;4.30;;;;;;;10.35;100.00;100051.84;1715218;83;20981;-75
2022/09/23 04:10:28;;;;;;;;;;;;;;;10.37;100.00;100056.47;1710435;83;21524;-75
2022/09/23 04:12:55;;;;;;;3.97;3.67;;;;;;;10.38;100.00;100060.80;1712157;83;20101;-76
2022/09/23 04:15:21;;;;;;;4.70;4.07;;;;;;;10.27;100.00;100053.30;1731353;82;21458;-74
2022/09/23 04:17:49;;;;;;;5.13;3.73;;;;;;;10.33;100.00;100066.69;1718940;81;21455;-77
2022/09/23 04:20:16;;;;;;;4.33;3.92;;;;;;;10.33;100.00;100062.69;1730387;81;21041;-75
2022/09/23 04:22:42;;;;;;;4.60;4.20;;;;;;;10.35;100.00;100063.02;1648223;86;21009;-79
2022/09/23 04:25:09;;;;;;;;;;;;;;;10.37;100.00;100064.47;1648683;85;21036;-78
2022/09/23 04:27:35;;;;;;;4.37;4.03;;;;;;;10.40;100.00;100061.94;1711291;83;20168;-80
2022/09/23 04:30:05;;;;;;;;;;;;;;;10.37;100.00;100062.31;1735778;81;20978;-81
2022/09/23 04:32:31;;;;;;;4.23;3.80;;;;;;;10.38;100.00;100055.47;1725740;80;20131;-80
2022/09/23 04:34:57;;;;;;;4.30;4.03;;;;;;;10.36;100.00;100054.84;1674499;84;21041;-80
2022/09/23 04:37:24;;;;;;;4.83;4.45;;;;;;;10.39;100.00;100056.28;1700813;83;20977;-81
2022/09/23 04:39:50;;;;;;;5.80;4.53;;;;;;;10.39;100.00;100057.09;1676944;83;20975;-81
2022/09/23 04:42:16;;;;;;;4.95;4.55;;;;;;;10.41;100.00;100064.91;1708218;81;21009;-89
2022/09/23 04:44:43;;;;;;;5.27;4.80;;;;;;;10.42;100.00;100070.05;1726956;81;21009;-77
2022/09/23 04:47:10;;;;;;;8.77;4.60;;;;;;;10.43;100.00;100062.86;1675319;84;21037;-75
2022/09/23 04:49:37;;;;;;;;;;;;;;;10.41;100.00;100068.38;1711478;83;20986;-76
2022/09/23 04:52:04;;;;;;;4.40;3.63;;;;;;;10.42;100.00;100075.89;1703028;83;20428;-75
2022/09/23 04:54:31;;;;;;;4.13;3.83;;;;;;;10.40;100.00;100073.93;1675284;85;21552;-77
2022/09/23 04:56:58;;;;;;;5.43;4.97;;;;;;;10.43;100.00;100077.52;1662789;83;21009;-78
2022/09/23 04:59:24;;;;;;;4.95;4.42;;;;;;;10.43;99.79;100073.01;1720064;83;21037;-77
2022/09/23 05:01:53;;;;;;;4.60;3.62;;;;;;;10.46;99.90;100071.30;1733903;81;21510;-77
2022/09/23 05:04:19;;;;;;;4.20;3.90;;;;;;;10.49;99.59;100065.59;1736043;81;20985;-76
2022/09/23 05:06:45;;;;;;;4.78;4.37;;;;;;;10.51;99.37;100068.88;1701990;83;21025;-77
2022/09/23 05:09:16;;;;;;;4.53;4.13;;;;;;;10.53;99.12;100067.36;1683888;83;21207;-76
2022/09/23 05:11:43;;;;;;;4.33;4.00;;;;;;;10.55;99.08;100066.66;1727304;83;21544;-79
2022/09/23 05:14:10;;;;;;;4.53;4.17;;;;;;;10.60;99.16;100074.05;1711521;83;21076;-77
2022/09/23 05:16:37;;;;;;;6.03;4.40;;;;;;;10.64;98.99;100069.97;1708892;83;20994;-77
2022/09/23 05:19:04;;;;;;;5.42;4.92;;;;;;;10.67;98.41;100065.59;1707535;83;21267;-77
2022/09/23 05:21:31;;;;;;;5.20;4.72;;;;;;;10.71;98.53;100065.00;1672355;84;21045;-78
2022/09/23 05:23:59;;;;;;;;;;;;;;;10.76;98.11;100059.09;1702380;83;21061;-78
2022/09/23 05:26:29;;;;;;;5.83;5.10;;;;;;;10.79;97.84;100058.68;1721827;82;20133;-76
2022/09/23 05:28:57;;;;;;;6.53;5.90;;;;;;;10.77;97.87;100062.58;1722838;82;21027;-84
2022/09/23 05:31:27;;;;;;;5.67;5.17;;;;;;;10.82;98.10;100058.81;1719236;82;21008;-83
2022/09/23 05:34:00;;;;;;;5.53;5.12;;;;;;;10.86;97.32;100057.39;1708575;82;21053;-86
2022/09/23 05:36:29;;;;;;;4.47;4.17;;;;;;;10.87;97.21;100056.39;1704229;83;21033;-84
2022/09/23 05:38:55;;;;;;;5.53;4.73;;;;;;;10.88;97.29;100058.84;1677325;84;21164;-83
2022/09/23 05:41:23;;;;;;;5.92;5.53;;;;;;;10.72;96.86;100035.19;1705926;83;20989;-83
2022/09/23 05:43:51;;;;;;;6.67;6.08;;;;;;;10.89;97.03;100062.34;1675751;84;21068;-84
2022/09/23 05:46:22;;;;;;;5.33;4.83;;;;;;;10.91;97.28;100060.30;1675930;83;21490;-86
2022/09/23 05:48:49;;;;;;;4.87;4.47;;;;;;;10.96;97.26;100062.36;1708932;83;21523;-90
2022/09/23 05:51:23;;;;;;;5.40;4.55;;;;;;;10.97;97.49;100062.70;1694061;83;21326;-89
2022/09/23 05:53:51;;;;;;;5.75;5.25;;;;;;;10.99;98.04;100065.98;1721104;81;21489;-91
2022/09/23 05:56:21;;;;;;;8.17;6.33;;;;;;;11.01;98.81;100066.09;1736001;81;21002;-88
2022/09/23 05:58:50;;;;;;;8.98;7.47;;;;;;;10.99;99.81;100063.31;1671230;84;21053;-92
2022/09/23 06:01:23;;;;;;;11.43;6.30;;;;;;;10.90;100.00;100066.12;1673639;84;21972;-88
2022/09/23 06:03:55;;;;;;;6.03;5.53;;;;;;;10.83;100.00;100067.11;1695234;83;21115;-84
2022/09/23 06:06:28;;;;;;;9.30;6.12;;;;;;;10.77;100.00;100066.57;1695121;83;21138;-90
2022/09/23 06:08:57;;;;;;;6.42;5.83;;;;;;;10.69;100.00;100065.70;1665226;83;21030;-83
2022/09/23 06:11:25;;;;;;;7.75;6.17;;;;;;;10.64;100.00;100068.16;1670809;85;21126;-85
2022/09/23 06:13:59;;;;;;;7.08;6.33;;;;;;;10.58;100.00;100069.42;1630751;86;20950;-85
2022/09/23 06:16:27;;;;;;;6.87;6.33;;;;;;;10.52;100.00;100067.84;1654293;84;21029;-82
2022/09/23 06:18:53;;;;;;;9.97;7.87;;;;;;;10.49;100.00;100072.73;1706220;83;21030;-83
2022/09/23 06:21:20;;;;;;;8.30;7.50;;;;;;;10.47;100.00;100078.77;1664631;84;21133;-82
2022/09/23 06:23:46;;;;;;;;;;;;;;;10.46;100.00;100083.80;1648639;86;21007;-87
2022/09/23 06:26:15;;;;;;;7.00;6.47;;;;;;;10.47;100.00;100082.28;1704290;83;20169;-89
2022/09/23 06:28:43;;;;;;;10.20;6.70;;;;;;;10.44;100.00;100083.99;1707582;83;21014;-86
2022/09/23 06:31:14;;;;;;;10.13;9.13;;;;;;;10.45;100.00;100085.66;1727812;81;21103;-86
2022/09/23 06:33:42;;;;;;;7.87;7.17;;;;;;;10.50;100.00;100088.54;1738384;80;21141;-89
2022/09/23 06:36:10;;;;;;;8.17;7.13;;;;;;;10.55;100.00;100087.98;1711108;83;21017;-89
2022/09/23 06:38:44;;;;;;;8.08;7.25;;;;;;;10.60;100.00;100084.20;1733356;81;21050;-88
2022/09/23 06:41:11;;;;;;;8.67;7.43;;;;;;;10.65;100.00;100089.77;1729458;81;21106;-85
2022/09/23 06:43:40;;;;;;;9.70;7.00;;;;;;;10.03;100.00;99982.64;1733307;81;21056;-83
2022/09/23 06:46:08;;;;;;;11.00;9.33;;;;;;;10.66;100.00;100086.11;1731226;81;21085;-88
2022/09/23 06:48:34;;;;;;;8.10;7.30;;;;;;;10.65;100.00;100082.30;1728393;81;21557;-87
2022/09/23 06:51:06;;;;;;;12.15;7.05;;;;;;;10.62;100.00;100082.67;1737183;81;21176;-89
2022/09/23 06:53:33;;;;;;;7.97;7.17;;;;;;;10.59;100.00;100080.42;1722474;81;21053;-88
2022/09/23 06:56:03;;;;;;;7.80;7.00;;;;;;;10.55;100.00;100078.65;1734020;81;21190;-86
2022/09/23 06:58:31;;;;;;;7.13;6.53;;;;;;;10.53;100.00;100086.02;1733764;81;21631;-88
2022/09/23 07:01:12;;;;;;;6.33;5.77;;;;;;;10.50;100.00;100082.39;1735750;81;21041;-89
2022/09/23 07:03:38;;;;;;;7.30;6.60;;;;;;;10.50;100.00;100088.54;1733180;81;20990;-89
2022/09/23 07:06:06;;;;;;;6.90;6.27;;;;;;;10.50;100.00;100085.06;1714273;82;21479;-88
2022/09/23 07:08:34;;;;;;;7.50;6.80;;;;;;;10.49;100.00;100089.57;1733361;81;21434;-82
2022/09/23 07:11:04;;;;;;;7.00;6.50;;;;;;;10.47;100.00;100084.10;1732499;81;21021;-85
2022/09/23 07:13:32;;;;;;;7.33;6.57;;;;;;;10.47;100.00;100088.10;1737254;81;21111;-85
2022/09/23 07:16:03;;;;;;;7.97;7.27;;;;;;;10.47;100.00;100080.95;1731052;81;21053;-87
2022/09/23 07:18:33;;;;;;;7.67;6.97;;;;;;;10.47;100.00;100084.95;1732799;81;21063;-88
2022/09/23 07:21:13;;;;;;;9.70;6.80;;;;;;;10.51;100.00;100078.73;1731818;81;21014;-88
2022/09/23 07:23:39;;;;;;;7.53;6.40;;;;;;;10.55;100.00;100075.98;1730561;81;21077;-88
2022/09/23 07:26:07;;;;;;;7.40;6.60;;;;;;;10.58;100.00;100066.25;1730135;81;21049;-85
2022/09/23 07:28:36;;;;;;;9.43;6.87;;;;;;;10.62;100.00;100059.50;1684232;84;21035;-87
2022/09/23 07:31:07;;;;;;;7.60;6.93;;;;;;;10.67;100.00;100057.08;1676974;84;21124;-85
2022/09/23 07:33:40;;;;;;;7.50;6.90;;;;;;;10.75;100.00;100060.09;1716784;83;21036;-90
2022/09/23 07:36:13;;;;;;;6.33;5.83;;;;;;;10.84;100.00;100066.11;1706142;83;20976;-83
2022/09/23 07:38:40;;;;;;;6.67;5.22;;;;;;;10.94;100.00;100063.89;1717536;83;21027;-84
2022/09/23 07:41:09;;;;;;;3.95;3.60;;;;;;;11.05;100.00;100065.18;1704533;83;21078;-90
2022/09/23 07:43:39;;;;;;;4.27;3.97;;;;;;;11.16;100.00;100060.62;1703214;83;21118;-87
2022/09/23 07:46:10;;;;;;;3.70;3.40;;;;;;;11.24;100.00;100056.95;1705132;83;21085;-90
2022/09/23 07:48:37;;;;;;;3.72;3.15;;;;;;;11.30;100.00;100056.98;1679934;83;21060;-88
2022/09/23 07:51:10;;;;;;;2.85;2.65;;;;;;;11.35;100.00;100055.56;1674360;84;21290;-87
2022/09/23 07:53:36;;;;;;;3.50;3.20;;;;;;;11.29;100.00;100049.18;1672471;83;21125;-86
2022/09/23 07:56:05;;;;;;;2.33;2.05;;;;;;;11.28;100.00;100060.38;1678693;84;21113;-83
2022/09/23 07:58:33;;;;;;;2.17;2.08;;;;;;;11.29;100.00;100056.66;1677232;84;21037;-84
2022/09/23 08:01:06;;;;;;;2.65;2.45;;;;;;;11.36;100.00;100056.70;1648517;85;21091;-88
2022/09/23 08:03:34;;;;;;;2.37;2.25;;;;;;;11.42;100.00;100052.41;1706432;83;21146;-86
2022/09/23 08:06:11;;;;;;;2.85;2.65;;;;;;;11.43;100.00;100053.55;1706103;83;21044;-89
2022/09/23 08:08:42;;;;;;;3.58;3.27;;;;;;;11.41;100.00;100048.89;1702932;83;21056;-85
2022/09/23 08:11:12;;;;;;;4.90;4.05;;;;;;;11.40;100.00;100049.94;1704992;83;21008;-87
2022/09/23 08:13:40;;;;;;;4.28;3.90;;;;;;;11.38;100.00;100051.98;1707528;83;21145;-87
2022/09/23 08:16:09;;;;;;;3.35;3.15;;;;;;;11.34;100.00;100046.74;1704848;83;21132;-79
2022/09/23 08:18:36;;;;;;;4.95;3.85;;;;;;;11.30;100.00;100044.98;1720769;83;21073;-88
2022/09/23 08:21:02;;;;;;;4.70;4.17;;;;;;;11.30;100.00;100042.80;1681439;84;21040;-89
2022/09/23 08:23:32;;;;;;;;;;;;;;;11.29;100.00;100044.66;1674473;84;21119;-84
2022/09/23 08:26:00;;;;;;;5.90;3.77;;;;;;;11.35;100.00;100045.70;1704763;83;20165;-85
2022/09/23 08:28:28;;;;;;;4.10;3.30;;;;;;;11.38;100.00;100044.50;1688279;84;21538;-87
2022/09/23 08:30:55;;;;;;;2.87;2.65;;;;;;;11.42;100.00;100045.73;1675988;84;21093;-88
2022/09/23 08:33:23;;;;;;;3.77;3.57;;;;;;;11.46;100.00;100050.98;1676103;84;21589;-87
2022/09/23 08:35:51;;;;;;;4.97;4.67;;;;;;;11.55;100.00;100051.63;1676385;84;21293;-91
2022/09/23 08:38:19;;;;;;;8.45;6.67;;;;;;;11.67;100.00;100048.66;1692158;84;21022;-86
2022/09/23 08:40:48;;;;;;;4.12;3.80;;;;;;;11.77;100.00;100054.45;1675907;83;21013;-90
2022/09/23 08:43:31;;;;;;;2.95;2.75;;;;;;;11.86;100.00;100056.39;1670577;84;21068;-85
2022/09/23 08:46:07;;;;;;;4.05;3.40;;;;;;;11.93;100.00;100045.24;1728593;81;21155;-86
2022/09/23 08:48:44;;;;;;;2.45;2.25;;;;;;;12.00;98.07;100051.94;1731125;81;20998;-78
2022/09/23 08:51:25;;;;;;;2.42;2.27;;;;;;;12.03;97.85;100046.98;1631441;84;21125;-84
2022/09/23 08:53:52;;;;;;;2.22;2.12;;;;;;;12.13;98.84;100039.08;1674899;84;21048;-88
2022/09/23 08:56:23;;;;;;;;;;;;;;;12.22;97.84;100038.69;1678741;84;21009;-91
2022/09/23 08:59:21;;;;;;;8.35;2.85;;;;;;;12.34;95.88;100040.70;1669353;84;20152;-88
2022/09/23 09:01:51;;;;;;;2.40;1.77;;;;;;;12.41;94.73;100043.70;1673301;83;21048;-88
2022/09/23 09:04:26;;;;;;;1.42;1.32;;;;;;;12.57;95.68;100037.61;1709435;81;21049;-88
2022/09/23 09:07:08;;;;;;;2.08;1.98;;;;;;;12.66;91.82;100035.83;1734484;81;21017;-87
2022/09/23 09:09:59;;;;;;;2.12;1.80;;;;;;;12.74;91.86;100031.30;1732141;81;21595;-87
2022/09/23 09:12:45;;;;;;;0.70;0.70;;;;;;;12.79;91.84;100026.12;1721343;81;20977;-82
2022/09/23 09:15:22;;;;;;;2.75;1.72;;;;;;;12.79;89.07;100020.27;1709376;82;21113;-91
2022/09/23 09:18:01;;;;;;;;;;;;;;;12.75;89.25;100024.41;1736796;81;21125;-89
2022/09/23 09:20:54;;;;;;;1.25;1.15;;;;;;;12.78;89.66;100030.66;1739275;81;20160;-90
2022/09/23 09:23:34;;;;;;;1.35;0.78;;;;;;;12.73;86.88;100030.97;1675519;84;21021;-86
2022/09/23 09:26:02;;;;;;;0.65;0.42;;;;;;;12.72;88.08;100030.69;1677709;82;21037;-77
2022/09/23 09:28:50;;;;;;;1.15;0.33;;;;;;;12.71;86.81;100033.85;1659480;84;21066;-91
2022/09/23 09:31:34;;;;;;;0.33;0.33;;;;;;;12.70;88.12;100034.09;1664773;84;21091;-89
2022/09/23 09:34:25;;;;;;;1.45;0.28;;;;;;;12.64;84.89;100032.55;1661172;83;21067;-91
2022/09/23 09:37:24;;;;;;;0.82;0.23;;;;;;;12.57;85.46;100037.61;1689733;84;21104;-91
2022/09/23 09:39:50;;;;;;;0.95;0.90;;;;;;;12.49;86.30;100037.31;1742993;81;21083;-88
2022/09/23 09:42:31;;;;;;;0.40;0.37;;;;;;;12.47;87.39;100034.03;1730963;81;21065;-90
2022/09/23 09:45:01;;;;;;;0.45;0.30;;;;;;;12.58;87.92;100036.06;1736877;81;21083;-90
2022/09/23 09:47:57;;;;;;;1.47;0.37;;;;;;;12.68;87.68;100030.77;1744618;81;21060;-83
2022/09/23 09:50:50;;;;;;;0.55;0.40;;;;;;;12.78;87.54;100028.50;1703750;81;21108;-88
2022/09/23 09:53:25;;;;;;;1.12;0.55;;;;;;;12.91;83.85;100029.80;1710318;82;21112;-85
2022/09/23 09:56:07;;;;;;;0.40;0.37;;;;;;;13.00;83.02;100024.52;1710971;82;21063;-84
2022/09/23 09:58:48;;;;;;;0.50;0.50;;;;;;;13.01;83.13;100024.80;1656909;85;21512;-84
2022/09/23 10:01:24;;;;;;;0.30;0.20;;;;;;;13.01;83.59;100019.45;1669330;85;21047;-90
2022/09/23 10:03:57;;;;;;;0.85;0.25;;;;;;;13.07;82.47;100016.97;1683705;85;21065;-89
2022/09/23 10:06:33;;;;;;;1.00;0.28;;;;;;;13.13;82.75;100012.94;1666756;84;21043;-90
2022/09/23 10:09:11;;;;;;;0.33;0.33;;;;;;;13.19;81.44;100021.97;1672588;83;21561;-91
2022/09/23 10:11:39;;;;;;;0.75;0.53;;;;;;;13.19;82.00;100020.11;1667942;85;21015;-91
2022/09/23 10:14:17;;;;;;;0.90;0.33;;;;;;;13.23;81.91;100019.17;1733877;81;21109;-91
2022/09/23 10:16:47;;;;;;;0.55;0.30;;;;;;;13.20;80.88;100017.75;1712153;82;21125;-87
2022/09/23 10:19:25;;;;;;;1.02;0.35;;;;;;;13.23;82.76;100014.63;1690697;82;21108;-88
2022/09/23 10:21:58;;;;;;;0.78;0.42;;;;;;;13.22;83.55;100022.87;1735462;81;21561;-87
2022/09/23 10:48:27;;;;;;;0.98;0.98;;;;;;;14.65;79.28;100006.66;1701244;83;21564;-87
2022/09/23 10:50:56;;;;;;;0.60;0.60;;;;;;;14.37;79.94;99999.08;1692913;83;21033;-86
2022/09/23 10:54:08;;;;;;;0.60;0.60;;;;;;;14.15;79.68;99996.83;1709894;83;21620;-91
2022/09/23 10:56:42;;;;;;;0.82;0.55;;;;;;;14.01;80.17;100000.65;1698107;83;21051;-85
2022/09/23 10:59:28;;;;;;;0.78;0.57;;;;;;;13.87;80.81;100001.81;1670296;84;21089;-86
2022/09/23 11:02:27;;;;;;;0.60;0.40;;;;;;;13.77;80.82;99994.27;1690475;83;21941;-87
2022/09/23 11:05:20;;;;;;;0.50;0.30;;;;;;;13.64;79.70;100000.53;1682842;84;21120;-87
2022/09/23 11:07:55;;;;;;;0.60;0.53;;;;;;;13.52;80.24;99999.05;1682157;84;21018;-85
2022/09/23 11:10:39;;;;;;;4.33;0.75;;;;;;;13.47;80.09;99990.86;1677227;82;21060;-87
2022/09/23 11:13:32;;;;;;;0.65;0.50;;;;;;;13.44;79.79;99993.44;1683412;84;21070;-86
2022/09/23 11:16:39;;;;;;;2.12;2.02;;;;;;;13.42;80.73;99989.34;1677095;84;21049;-87
2022/09/23 11:19:36;;;;;;;0.30;0.30;;;;;;;13.38;78.99;99990.28;1678385;84;21033;-87
2022/09/23 11:23:06;;;;;;;1.10;1.00;;;;;;;13.34;77.40;99992.28;1678056;84;21062;-88
2022/09/23 11:26:14;;;;;;;1.20;1.12;;;;;;;13.33;76.56;99990.10;1679361;85;21026;-85
2022/09/23 11:29:07;;;;;;;0.60;0.50;;;;;;;13.32;78.35;99988.48;1658692;85;21089;-85
2022/09/23 11:31:59;;;;;;;0.40;0.30;;;;;;;13.34;78.63;99986.41;1680086;85;21021;-88
2022/09/23 11:38:20;;;;;;;0.40;0.40;;;;;;;13.37;80.02;99987.81;1629471;87;21083;-91
2022/09/23 11:40:53;;;;;;;1.57;1.47;;;;;;;13.40;80.90;99988.21;1664993;84;21052;-91
2022/09/23 11:43:23;;;;;;;0.65;0.60;;;;;;;13.46;80.60;99983.85;1660510;85;21052;-85
2022/09/23 11:46:28;;;;;;;1.37;0.60;;;;;;;13.48;79.48;99983.64;1662691;85;21063;-86
2022/09/23 11:49:15;;;;;;;2.40;2.12;;;;;;;13.46;79.52;99977.16;1664922;85;21619;-87
2022/09/23 11:51:56;;;;;;;0.70;0.70;;;;;;;13.40;80.34;99977.50;1663101;85;20993;-89
2022/09/23 11:54:30;;;;;;;0.93;0.93;;;;;;;13.28;81.16;99973.02;1659533;85;20979;-90
2022/09/23 11:57:00;;;;;;;0.85;0.78;;;;;;;12.85;82.21;99917.78;1666305;85;21055;-84
2022/09/23 11:59:46;;;;;;;1.25;1.17;;;;;;;13.22;83.99;99978.21;1666189;85;20992;-89
2022/09/23 12:02:54;;;;;;;5.95;5.37;;;;;;;13.17;84.01;99967.84;1663885;85;21614;-90
2022/09/23 12:05:24;;;;;;;1.35;0.40;;;;;;;13.09;83.68;99973.42;1659442;85;21032;-91
2022/09/23 12:08:02;;;;;;;0.30;0.10;;;;;;;12.94;82.74;99965.67;1642500;85;21556;-89
2022/09/23 12:10:43;;;;;;;0.17;0.10;;;;;;;12.86;80.72;99966.73;1669854;85;20961;-78
2022/09/23 12:13:39;;;;;;;0.57;0.10;;;;;;;12.78;80.66;99967.80;1660695;85;21104;-90
2022/09/23 12:16:27;;;;;;;0.10;0.10;;;;;;;12.73;78.32;99969.47;1648091;85;20977;-80
2022/09/23 12:19:06;;;;;;;0.10;0.08;;;;;;;12.73;78.13;99965.45;1669003;85;20990;-87
2022/09/23 12:21:46;;;;;;;0.50;0.10;;;;;;;12.76;79.06;99965.05;1653235;85;21053;-92
2022/09/23 12:24:26;;;;;;;0.20;0.10;;;;;;;12.80;78.73;99962.25;1624469;86;21119;-90
2022/09/23 12:26:57;;;;;;;0.40;0.40;;;;;;;12.84;78.52;99964.80;1642900;85;21024;-92
2022/09/23 12:29:27;;;;;;;0.23;0.20;;;;;;;12.87;79.12;99967.06;1652298;84;20981;-87
2022/09/23 12:31:54;;;;;;;0.47;0.33;;;;;;;12.88;78.86;99966.01;1652226;85;21790;-89